4M9

Corning Municipal Airport

Corning, Arkansas, USA
METAR K4M9 140335Z AUTO 09010KT 4SM BR FEW014 BKN020 OVC027 12/12 A2991 RMK AO2 PWINO
Observed Flight Rules
Dec-14 @ 03:35 UTC (10 minutes ago) Marginal Visual Flight Rules
Wind Visibility Clouds Conditions
90° at 10 knots 4 miles
  • Few at 1,400' AGL
  • Broken at 2,000' AGL
  • Overcast at 2,700' AGL
  • Mist
Temperatures Readings
Current 12°C / 54°F
Dewpoint 12°C / 54°F
Humidity 100%
Altimeter 29.91" Hg
Pressure 1013 hPa
Elevation 90
METAR K4M9 140335Z AUTO 09010KT 4SM BR FEW014 BKN020 OVC027 12/12 A2991 RMK AO2 PWINO
Observed Flight Rules
Dec-14 @ 03:35 UTC
(10 minutes ago)
MVFR
Wind Visibility
90° at 10 knots 4 miles
Clouds
  • Few at 1,400' AGL
  • Broken at 2,000' AGL
  • Overcast at 2,700' AGL
Conditions
  • Mist
Temperature Dewpoint
12°C / 54°F 12°C / 54°F
Humidity Altimeter Pressure
100% 29.91" Hg 1013 hPa